SSEC Globe Logo

Space Science and Engineering Center

Surface Aviation Observations

KAIG 231715Z AUTO 00000KT 10SM CLR 12/M02 A3036 RMK AO2
     T01231017=
KAIG 231715Z AUTO 00000KT 10SM CLR 12/M02 A3036 RMK AO2
     T01231017=
KAIG 231655Z AUTO 05006KT 10SM CLR 12/M01 A3037 RMK AO2
     T01221009=
KAIG 231655Z AUTO 05006KT 10SM CLR 12/M01 A3037 RMK AO2
     T01221009=
KC29 231715Z AUTO 14004KT 10SM SCT055 16/02 A3035 RMK AO1
     T01610018=
KC29 231715Z AUTO 14004KT 10SM SCT055 16/02 A3035 RMK AO1
     T01610018=
KC29 231655Z AUTO 09005KT 10SM BKN055 16/01 A3036 RMK AO1
     T01560010=
KC29 231655Z AUTO 09005KT 10SM BKN055 16/01 A3036 RMK AO1
     T01560010=
KBCK 231715Z AUTO 02004KT 10SM CLR 15/M03 A3035 RMK AO2
     T01531032=
KBCK 231715Z AUTO 02004KT 10SM CLR 15/M03 A3035 RMK AO2
     T01531032=
KBCK 231655Z AUTO 11003KT 10SM CLR 16/M03 A3036 RMK AO2
     T01561035=
KBCK 231655Z AUTO 11003KT 10SM CLR 16/M03 A3036 RMK AO2
     T01561035=
KUBE 231715Z AUTO 14004KT 10SM OVC070 14/M02 A3035 RMK AO2=
KUBE 231715Z AUTO 14004KT 10SM OVC070 14/M02 A3035 RMK AO2=
KUBE 231655Z AUTO 27003KT 10SM OVC070 14/M01 A3035 RMK AO2=
KUBE 231655Z AUTO 27003KT 10SM OVC070 14/M01 A3035 RMK AO2=
KPVB 231715Z AUTO 10005KT 10SM BKN050 16/03 A3033 RMK AO1
     T01560033=
KPVB 231655Z AUTO 08006KT 10SM BKN050 16/03 A3034 RMK AO1
     T01580033=
KPVB 231655Z AUTO 08006KT 10SM BKN050 16/03 A3034 RMK AO1
     T01580033=
KEZS 231715Z AUTO 06005KT 10SM CLR 15/00 A3038 RMK AO2
     T01511004=
KEZS 231715Z AUTO 06005KT 10SM CLR 15/00 A3038 RMK AO2
     T01511004=
KEZS 231655Z AUTO 08006KT 10SM CLR 15/M01 A3038 RMK AO2
     T01491009=
KEZS 231655Z AUTO 08006KT 10SM CLR 15/M01 A3038 RMK AO2
     T01491009=
KASX 231653Z AUTO 20007KT 180V250 10SM FEW070 OVC090 16/M04
     A3033 RMK AO2 SLP277 T01561039=
KASX 231653Z AUTO 20007KT 180V250 10SM FEW070 OVC090 16/M04
     A3033 RMK AO2 SLP277 T01561039=
KATW 231645Z VRB04KT 10SM BKN055 14/00 A3036=
KATW 231645Z VRB04KT 10SM BKN055 14/00 A3036=
KAUW 231654Z AUTO 10SM CLR 15/M03 A3035 RMK AO2 SLP286
     T01501028=
KAUW 231654Z AUTO 10SM CLR 15/M03 A3035 RMK AO2 SLP286
     T01501028=
KBUU 231715Z AUTO 07007KT 10SM 15/03 A3035 RMK AO2 T01450032
     PWINO=
KBUU 231715Z AUTO 07007KT 10SM 15/03 A3035 RMK AO2 T01450032
     PWINO=
KBUU 231655Z AUTO 13005KT 10SM 14/03 A3036 RMK AO2 T01430027
     PWINO=
KBUU 231655Z AUTO 13005KT 10SM 14/03 A3036 RMK AO2 T01430027
     PWINO=
KCWA 231649Z 31003KT 10SM BKN060 13/M02 A3038=
KCWA 231649Z 31003KT 10SM BKN060 13/M02 A3038=
KDLL 231715Z AUTO 10006KT 10SM BKN055 14/00 A3036 RMK AO2
     T01410003=
KDLL 231715Z AUTO 10006KT 10SM BKN055 14/00 A3036 RMK AO2
     T01410003=
KDLL 231655Z AUTO 11004KT 10SM SCT065 13/00 A3037 RMK AO2
     T01341002=
KDLL 231655Z AUTO 11004KT 10SM SCT065 13/00 A3037 RMK AO2
     T01341002=
KEAU 231656Z 00000KT 10SM SCT075 14/M03 A3035 RMK AO2 SLP284
     T01441028=
KEAU 231656Z 00000KT 10SM SCT075 14/M03 A3035 RMK AO2 SLP284
     T01441028=
KEFT 231715Z AUTO 16006KT 10SM SCT050 16/01 A3032 RMK AO2
     T01570006=
KEFT 231715Z AUTO 16006KT 10SM SCT050 16/01 A3032 RMK AO2
     T01570006=
KEFT 231655Z AUTO 16006KT 10SM BKN050 16/01 A3033 RMK AO2
     T01570011=
KEFT 231655Z AUTO 16006KT 10SM BKN050 16/01 A3033 RMK AO2
     T01570011=
KEGV 231715Z AUTO 36003KT 10SM BKN070 13/M06 A3034 RMK AO2
     T01271056=
KEGV 231715Z AUTO 36003KT 10SM BKN070 13/M06 A3034 RMK AO2
     T01271056=
KEGV 231655Z AUTO 10005KT 10SM SCT070 13/M04 A3034 RMK AO2
     T01341038=
KEGV 231655Z AUTO 10005KT 10SM SCT070 13/M04 A3034 RMK AO2
     T01341038=
KENW 231653Z 08010KT 10SM CLR 14/04 A3037 RMK AO2 SLP287
     T01440044=
KENW 231653Z 08010KT 10SM CLR 14/04 A3037 RMK AO2 SLP287
     T01440044=
KETB 231715Z AUTO 13006KT 10SM BKN050 OVC060 12/01 A3037 RMK
     AO2=
KETB 231715Z AUTO 13006KT 10SM BKN050 OVC060 12/01 A3037 RMK
     AO2=
KETB 231655Z AUTO 09008KT 060V130 10SM OVC060 13/01 A3037
     RMK AO2=
KETB 231655Z AUTO 09008KT 060V130 10SM OVC060 13/01 A3037
     RMK AO2=
KFLD 231653Z AUTO 09005KT 10SM BKN065 14/01 A3037 RMK AO2
     SLP286 T01390011=
KFLD 231653Z AUTO 09005KT 10SM BKN065 14/01 A3037 RMK AO2
     SLP286 T01390011=
KGRB 231653Z 10006KT 10SM CLR 16/00 A3038 RMK AO2 SLP290
     T01560000=
KGRB 231653Z 10006KT 10SM CLR 16/00 A3038 RMK AO2 SLP290
     T01560000=
KHYR 231653Z AUTO 00000KT 10SM OVC070 14/M02 A3034 RMK AO2
     SLP284 T01391017=
KHYR 231653Z AUTO 00000KT 10SM OVC070 14/M02 A3034 RMK AO2
     SLP284 T01391017=
KISW 231654Z AUTO 07005KT 10SM FEW065 14/M03 A3037 RMK AO2
     SLP290 T01441028=
KISW 231654Z AUTO 07005KT 10SM FEW065 14/M03 A3037 RMK AO2
     SLP290 T01441028=
KJVL 231645Z 11004KT 10SM BKN055 17/M01 A3034=
KJVL 231645Z 11004KT 10SM BKN055 17/M01 A3034=
KLNL 231715Z AUTO 07003KT 10SM BKN070 13/M05 A3035 RMK AO2
     T01301048=
KLNL 231715Z AUTO 07003KT 10SM BKN070 13/M05 A3035 RMK AO2
     T01301048=
KLNL 231655Z AUTO 35006KT 10SM BKN070 14/M05 A3036 RMK AO2
     T01441052=
KLNL 231655Z AUTO 35006KT 10SM BKN070 14/M05 A3036 RMK AO2
     T01441052=
KLNR 231656Z AUTO 10008KT 10SM OVC060 15/02 A3035 RMK AO2
     SLP277 T01500022=
KLNR 231656Z AUTO 10008KT 10SM OVC060 15/02 A3035 RMK AO2
     SLP277 T01500022=
KLSE 231653Z 15007KT 10SM BKN065 16/M01 A3036 RMK AO2 SLP281
     T01561011=
KLSE 231653Z 15007KT 10SM BKN065 16/M01 A3036 RMK AO2 SLP281
     T01561011=
KLUM 231715Z AUTO 00000KT 10SM 15/M04 A3036 RMK AO2
     T01531043=
KLUM 231715Z AUTO 00000KT 10SM 15/M04 A3036 RMK AO2
     T01531043=
KLUM 231655Z AUTO 00000KT 10SM 15/M03 A3036 RMK AO2
     T01451032=
KLUM 231655Z AUTO 00000KT 10SM 15/M03 A3036 RMK AO2
     T01451032=
KMDZ 231715Z AUTO 00000KT 10SM CLR 13/M02 A3035 RMK AO2
     T01301017 PWINO=
KMDZ 231715Z AUTO 00000KT 10SM CLR 13/M02 A3035 RMK AO2
     T01301017 PWINO=
KMDZ 231655Z AUTO 00000KT 10SM CLR 14/M01 A3035 RMK AO2
     T01351010 PWINO=
KMDZ 231655Z AUTO 00000KT 10SM CLR 14/M01 A3035 RMK AO2
     T01351010 PWINO=
KMFI 231654Z AUTO 06005G16KT 10SM BKN060 14/M01 A3036 RMK
     AO2 SLP289 T01441011=
KMFI 231654Z AUTO 06005G16KT 10SM BKN060 14/M01 A3036 RMK
     AO2 SLP289 T01441011=
KMKE 231652Z 09009KT 10SM FEW060 14/02 A3037 RMK AO2 SLP287
     T01440022=
KMKE 231652Z 09009KT 10SM FEW060 14/02 A3037 RMK AO2 SLP287
     T01440022=
KMRJ 231715Z AUTO 05009G14KT 010V070 10SM BKN050 16/00 A3033
     RMK AO2=
KMRJ 231715Z AUTO 05009G14KT 010V070 10SM BKN050 16/00 A3033
     RMK AO2=
KMRJ 231655Z AUTO 10008KT 10SM BKN050 16/00 A3035 RMK AO2=
KMRJ 231655Z AUTO 10008KT 10SM BKN050 16/00 A3035 RMK AO2=
KMSN 231653Z 00000KT 10SM BKN060 14/01 A3035 RMK AO2 SLP279
     T01440011=
KMSN 231653Z 00000KT 10SM BKN060 14/01 A3035 RMK AO2 SLP279
     T01440011=
KMTW 231656Z AUTO 11008KT 10SM OVC065 10/04 A3040 RMK AO2
     SLP300 T01000044=
KMTW 231656Z AUTO 11008KT 10SM OVC065 10/04 A3040 RMK AO2
     SLP300 T01000044=
KMWC 231645Z 10007KT 10SM SCT060 13/M01 A3038=
KMWC 231645Z 10007KT 10SM SCT060 13/M01 A3038=
KOEO 231715Z AUTO 09003KT 10SM BKN070 17/01 A3036 RMK AO2
     T01730014=
KOEO 231715Z AUTO 09003KT 10SM BKN070 17/01 A3036 RMK AO2
     T01730014=
KOEO 231655Z AUTO 12003KT 10SM SCT070 17/01 A3037 RMK AO2
     T01720005=
KOEO 231655Z AUTO 12003KT 10SM SCT070 17/01 A3037 RMK AO2
     T01720005=
KOSH 231653Z VRB06KT 10SM CLR 14/M01 A3037 RMK AO2 SLP286
     T01441006=
KOSH 231653Z VRB06KT 10SM CLR 14/M01 A3037 RMK AO2 SLP286
     T01441006=
KOVS 231653Z AUTO 05008KT 10SM BKN055 16/01 A3035 RMK AO2
     SLP283 T01610011=
KOVS 231653Z AUTO 05008KT 10SM BKN055 16/01 A3035 RMK AO2
     SLP283 T01610011=
KPBH 231715Z AUTO 23003KT 10SM OVC070 13/M02 A3034 RMK AO2
     T01251023=
KPBH 231715Z AUTO 23003KT 10SM OVC070 13/M02 A3034 RMK AO2
     T01251023=
KPBH 231655Z AUTO 00000KT 10SM BKN070 13/M02 A3035 RMK AO2
     T01251019=
KPBH 231655Z AUTO 00000KT 10SM BKN070 13/M02 A3035 RMK AO2
     T01251019=
KPCZ 231715Z AUTO 08007KT 10SM SCT060 15/M02 A3038 RMK AO2
     T01541018 PWINO=
KPCZ 231715Z AUTO 08007KT 10SM SCT060 15/M02 A3038 RMK AO2
     T01541018 PWINO=
KPCZ 231655Z AUTO 34004KT 10SM BKN060 15/M02 A3038 RMK AO2
     T01461020 PWINO=
KPCZ 231655Z AUTO 34004KT 10SM BKN060 15/M02 A3038 RMK AO2
     T01461020 PWINO=
KPDC 231715Z AUTO 34004KT 10SM SCT050 15/00 A3035 RMK AO2
     T01450001=
KPDC 231715Z AUTO 34004KT 10SM SCT050 15/00 A3035 RMK AO2
     T01450001=
KPDC 231655Z AUTO 10003KT 10SM SCT050 14/01 A3035 RMK AO2
     T01380007=
KPDC 231655Z AUTO 10003KT 10SM SCT050 14/01 A3035 RMK AO2
     T01380007=
KRAC 231653Z AUTO 11008KT 10SM CLR 13/04 A3039 RMK AO2
     SLP294 T01330039=
KRAC 231653Z AUTO 11008KT 10SM CLR 13/04 A3039 RMK AO2
     SLP294 T01330039=
KRCX 231715Z AUTO 03005KT 10SM 15/M02 A3036 RMK AO2
     T01521018=
KRCX 231715Z AUTO 03005KT 10SM 15/M02 A3036 RMK AO2
     T01521018=
KRCX 231655Z AUTO 00000KT 10SM 14/M02 A3037 RMK AO2
     T01441024=
KRCX 231655Z AUTO 00000KT 10SM 14/M02 A3037 RMK AO2
     T01441024=
KRHI 231653Z AUTO VRB03KT 10SM FEW070 13/M03 A3036 RMK AO2
     SLP293 T01281028=
KRHI 231653Z AUTO VRB03KT 10SM FEW070 13/M03 A3036 RMK AO2
     SLP293 T01281028=
KRNH 231715Z AUTO 16004KT 10SM CLR 15/M03 A3034 RMK AO2
     T01491027=
KRNH 231655Z AUTO 00000KT 10SM SCT070 15/M02 A3035 RMK AO2
     T01491017=
KRNH 231655Z AUTO 00000KT 10SM SCT070 15/M02 A3035 RMK AO2
     T01491017=
KRPD 231715Z AUTO 27005KT 10SM OVC070 15/M01 A3037 RMK AO2
     T01521014=
KRPD 231715Z AUTO 27005KT 10SM OVC070 15/M01 A3037 RMK AO2
     T01521014=
KRPD 231655Z AUTO 00000KT 10SM BKN070 15/M04 A3037 RMK AO2
     T01511037=
KRPD 231655Z AUTO 00000KT 10SM BKN070 15/M04 A3037 RMK AO2
     T01511037=
KRRL 231715Z AUTO 27003KT 10SM BKN070 14/M01 A3034 RMK AO2
     T01391013 TSNO=
KRRL 231715Z AUTO 27003KT 10SM BKN070 14/M01 A3034 RMK AO2
     T01391013 TSNO=
KRRL 231655Z AUTO 16004KT 10SM SCT070 14/M01 A3035 RMK AO2
     T01351014 TSNO=
KRRL 231655Z AUTO 16004KT 10SM SCT070 14/M01 A3035 RMK AO2
     T01351014 TSNO=
KRYV 231715Z AUTO 02003KT 10SM OVC060 14/01 A3034 RMK AO2
     T01420008=
KRYV 231715Z AUTO 02003KT 10SM OVC060 14/01 A3034 RMK AO2
     T01420008=
KRYV 231655Z AUTO 10006KT 10SM BKN060 15/01 A3035 RMK AO2
     T01530006=
KRYV 231655Z AUTO 10006KT 10SM BKN060 15/01 A3035 RMK AO2
     T01530006=
KRZN 231715Z AUTO 28006KT 10SM OVC080 15/M02 A3033 RMK AO2
     T01471020=
KRZN 231715Z AUTO 28006KT 10SM OVC080 15/M02 A3033 RMK AO2
     T01471020=
KRZN 231655Z AUTO 27007KT 10SM OVC070 14/M03 A3034 RMK AO2
     T01441030=
KRZN 231655Z AUTO 27007KT 10SM OVC070 14/M03 A3034 RMK AO2
     T01441030=
KSBM 231653Z AUTO 07007KT 10SM 14/04 A3038 RMK AO2 SLP291
     T01390039 $=
KSBM 231653Z AUTO 07007KT 10SM 14/04 A3038 RMK AO2 SLP291
     T01390039 $=
KSTE 231715Z AUTO 03007G14KT 10SM SCT065 15/M06 A3037 RMK
     AO2 T01521061=
KSTE 231715Z AUTO 03007G14KT 10SM SCT065 15/M06 A3037 RMK
     AO2 T01521061=
KSTE 231655Z AUTO 11006KT 10SM BKN065 14/M07 A3037 RMK AO2
     T01421070=
KSTE 231655Z AUTO 11006KT 10SM BKN065 14/M07 A3037 RMK AO2
     T01421070=
KSUE 231656Z AUTO 10009KT 10SM CLR 12/04 A3041 RMK AO2
     SLP298 T01170039=
KSUE 231656Z AUTO 10009KT 10SM CLR 12/04 A3041 RMK AO2
     SLP298 T01170039=
KSUW 231715Z AUTO 20004KT 10SM SCT070 BKN085 16/M01 A3031
     RMK AO2 T01571007=
KSUW 231715Z AUTO 20004KT 10SM SCT070 BKN085 16/M01 A3031
     RMK AO2 T01571007=
KSUW 231655Z AUTO 21007G14KT 10SM SCT095 15/00 A3032 RMK AO2
     T01471001=
KSUW 231655Z AUTO 21007G14KT 10SM SCT095 15/00 A3032 RMK AO2
     T01471001=
KTKV 231715Z AUTO 11003KT 10SM SCT065 15/M02 A3035 RMK AO2
     T01461022 PWINO=
KTKV 231715Z AUTO 11003KT 10SM SCT065 15/M02 A3035 RMK AO2
     T01461022 PWINO=
KTKV 231655Z AUTO 00000KT 10SM SCT065 14/M04 A3036 RMK AO2
     T01381040 PWINO=
KTKV 231655Z AUTO 00000KT 10SM SCT065 14/M04 A3036 RMK AO2
     T01381040 PWINO=
KUES 231645Z 09005KT 10SM SCT048 BKN060 13/02 A3037=
KUES 231645Z 09005KT 10SM SCT048 BKN060 13/02 A3037=
KUNU 231715Z AUTO 08003KT 10SM OVC060 15/02 A3036 RMK AO2
     T01480019=
KUNU 231715Z AUTO 08003KT 10SM OVC060 15/02 A3036 RMK AO2
     T01480019=
KUNU 231655Z AUTO 00000KT 10SM OVC060 13/01 A3037 RMK AO2
     T01310005=
KUNU 231655Z AUTO 00000KT 10SM OVC060 13/01 A3037 RMK AO2
     T01310005=
KVOK 231710Z 13005KT 10SM FEW060 SCT150 BKN250 15/00 A3034
     RMK SLP283=
SPECI KVOK 231710Z 13005KT 10SM FEW060 SCT150 BKN250 15/00
     A3034 RMK SLP283=
SPECI KVOK 231710Z 13005KT 10SM FEW060 SCT150 BKN250 15/00
     A3034 RMK SLP283=
KY50 231656Z AUTO 17007KT SCT060 14/00 A3038 RMK AO2 SLP288
     T01440000 PWINO $=
KY50 231656Z AUTO 17007KT SCT060 14/00 A3038 RMK AO2 SLP288
     T01440000 PWINO $=
KY51 231715Z AUTO 10009KT 10SM 14/02 A3036 RMK AO1
     T01350019=
KY51 231715Z AUTO 10009KT 10SM 14/02 A3036 RMK AO1
     T01350019=
KY51 231655Z AUTO 10008KT 10SM 14/02 A3036 RMK AO1
     T01350019=
KY51 231655Z AUTO 10008KT 10SM 14/02 A3036 RMK AO1
     T01350019=
KY23 231715Z AUTO 00000KT 10SM OVC065 15/M03 A3036 RMK AO2
     T01471028=
KY23 231715Z AUTO 00000KT 10SM OVC065 15/M03 A3036 RMK AO2
     T01471028=
KY23 231655Z AUTO 00000KT 10SM OVC065 14/M02 A3036 RMK AO2
     T01441024=
KY23 231655Z AUTO 00000KT 10SM OVC065 14/M02 A3036 RMK AO2
     T01441024=
K3D2 231715Z AUTO 14006KT 10SM CLR 12/02 A3038 RMK AO2
     T01240023=
K3D2 231715Z AUTO 14006KT 10SM CLR 12/02 A3038 RMK AO2
     T01240023=
K3D2 231655Z AUTO 11008KT 10SM SCT043 12/02 A3039 RMK AO2
     T01200019=
K3D2 231655Z AUTO 11008KT 10SM SCT043 12/02 A3039 RMK AO2
     T01200019=
K4R5 231715Z AUTO 15004KT 10SM OVC090 14/01 A3032 RMK AO2
     T01360012=
K4R5 231715Z AUTO 15004KT 10SM OVC090 14/01 A3032 RMK AO2
     T01360012=
K4R5 231655Z AUTO 17004KT 10SM OVC090 14/02 A3032 RMK AO2
     T01410015=
K4R5 231655Z AUTO 17004KT 10SM OVC090 14/02 A3032 RMK AO2
     T01410015=
KD25 231715Z AUTO 32003KT 10SM OVC075 13/M03 A3034 RMK AO2
     T01261026=
KD25 231715Z AUTO 32003KT 10SM OVC075 13/M03 A3034 RMK AO2
     T01261026=
KD25 231655Z AUTO 34007KT 10SM OVC075 13/M03 A3035 RMK AO2
     T01251026=
KD25 231655Z AUTO 34007KT 10SM OVC075 13/M03 A3035 RMK AO2
     T01251026=
K82C 231715Z AUTO 10004KT 10SM SCT060 14/00 A3035 RMK AO2
     T01361002=
K82C 231715Z AUTO 10004KT 10SM SCT060 14/00 A3035 RMK AO2
     T01361002=
K82C 231655Z AUTO 13007KT 10SM SCT060 15/02 A3036 RMK AO2
     T01490015=
K82C 231655Z AUTO 13007KT 10SM SCT060 15/02 A3036 RMK AO2
     T01490015=
KOCQ 231715Z AUTO 13009KT 10SM CLR 14/01 A3039 RMK AO1
     T01400013=
KOCQ 231715Z AUTO 13009KT 10SM CLR 14/01 A3039 RMK AO1
     T01400013=
KOCQ 231655Z AUTO 12010KT 10SM CLR 14/00 A3039 RMK AO1
     T01380002=
KOCQ 231655Z AUTO 12010KT 10SM CLR 14/00 A3039 RMK AO1
     T01380002=
KC35 231715Z AUTO 00000KT 10SM OVC060 14/00 A3035 RMK AO2
     T01350002 PWINO=
KC35 231715Z AUTO 00000KT 10SM OVC060 14/00 A3035 RMK AO2
     T01350002 PWINO=
KC35 231655Z AUTO 03004KT 10SM OVC060 14/01 A3036 RMK AO2
     T01410008 PWINO=
KC35 231655Z AUTO 03004KT 10SM OVC060 14/01 A3036 RMK AO2
     T01410008 PWINO=
KOLG 231715Z AUTO 20005KT 10SM OVC070 13/M04 A3032 RMK AO1=
KOLG 231715Z AUTO 20005KT 10SM OVC070 13/M04 A3032 RMK AO1=
KOLG 231655Z AUTO 21004KT 10SM SCT070 OVC080 13/M03 A3032
     RMK AO1=
KOLG 231655Z AUTO 21004KT 10SM SCT070 OVC080 13/M03 A3032
     RMK AO1=
K2P2 231715Z AUTO 18006KT 10SM SCT041 SCT120 11/03 A3040 RMK
     AO2 T01120034=
K2P2 231715Z AUTO 18006KT 10SM SCT041 SCT120 11/03 A3040 RMK
     AO2 T01120034=
K2P2 231655Z AUTO 18005KT 10SM SCT035 OVC041 12/04 A3040 RMK
     AO2 T01170039=
K2P2 231655Z AUTO 18005KT 10SM SCT035 OVC041 12/04 A3040 RMK
     AO2 T01170039=
KDBQ 231653Z 08003KT 10SM CLR 16/03 A3033 RMK AO2 SLP274
     T01560028=
KDBQ 231653Z 08003KT 10SM CLR 16/03 A3033 RMK AO2 SLP274
     T01560028=
KRST 231654Z 11006KT 10SM CLR 13/M01 A3036 RMK AO2 SLP288
     T01331011=
KRST 231654Z 11006KT 10SM CLR 13/M01 A3036 RMK AO2 SLP288
     T01331011=
KMSP 231653Z VRB03KT 10SM FEW080 SCT150 16/M02 A3034 RMK AO2
     SLP277 T01561017=
KMSP 231653Z VRB03KT 10SM FEW080 SCT150 16/M02 A3034 RMK AO2
     SLP277 T01561017=
KRFD 231654Z VRB04KT 10SM SCT055 17/03 A3035 RMK AO2 SLP277
     T01720028=
KRFD 231654Z VRB04KT 10SM SCT055 17/03 A3035 RMK AO2 SLP277
     T01720028=
KORD 231651Z 08012KT 10SM FEW047 FEW250 15/03 A3035 RMK AO2
     SLP278 T01500028=
KORD 231651Z 08012KT 10SM FEW047 FEW250 15/03 A3035 RMK AO2
     SLP278 T01500028=